createdAt,value
2019-05-30T00:00:57.934Z,53.86
2019-05-30T00:03:24.890Z,53.88
2019-05-30T00:05:51.518Z,54.37
2019-05-30T00:08:18.257Z,54.12
2019-05-30T00:10:44.895Z,54.66
2019-05-30T00:13:11.562Z,54.82
2019-05-30T00:15:38.430Z,55.12
2019-05-30T00:18:05.101Z,55.07
2019-05-30T00:20:31.683Z,55.24
2019-05-30T00:22:58.838Z,55.42
2019-05-30T00:25:25.811Z,56.74
2019-05-30T00:27:52.531Z,56.52
2019-05-30T00:30:24.446Z,56.43
2019-05-30T00:32:48.173Z,56.47
2019-05-30T00:35:14.948Z,56.70
2019-05-30T00:37:41.580Z,57.88
2019-05-30T00:40:08.745Z,57.27
2019-05-30T00:42:35.384Z,57.95
2019-05-30T00:45:09.286Z,57.78
2019-05-30T00:47:31.846Z,57.78
2019-05-30T00:49:58.562Z,58.44
2019-05-30T00:52:25.190Z,58.22
2019-05-30T00:54:52.085Z,58.61
2019-05-30T00:57:19.046Z,60.04
2019-05-30T00:59:45.766Z,58.05
2019-05-30T01:02:12.458Z,58.50
2019-05-30T01:04:39.778Z,59.12
2019-05-30T01:07:07.207Z,59.12
2019-05-30T01:09:33.938Z,59.47
2019-05-30T01:12:01.066Z,59.71
2019-05-30T01:14:28.655Z,60.49
2019-05-30T01:16:55.294Z,60.15
2019-05-30T01:19:22.100Z,60.06
2019-05-30T01:21:50.352Z,60.52
2019-05-30T01:24:17.015Z,60.62
2019-05-30T01:26:43.596Z,61.18
2019-05-30T01:29:10.416Z,60.11
2019-05-30T01:31:36.993Z,60.09
2019-05-30T01:34:03.774Z,60.79
2019-05-30T01:36:30.412Z,59.73
2019-05-30T01:38:57.702Z,61.04
2019-05-30T01:41:24.383Z,61.19
2019-05-30T01:43:51.745Z,61.13
2019-05-30T01:46:18.434Z,61.90
2019-05-30T01:48:45.055Z,61.31
2019-05-30T01:51:12.243Z,61.48
2019-05-30T01:53:38.844Z,60.42
2019-05-30T01:56:06.805Z,61.19
2019-05-30T01:58:33.469Z,61.45
2019-05-30T02:01:14.384Z,60.61
2019-05-30T02:03:28.682Z,62.46
2019-05-30T02:05:56.312Z,62.09
2019-05-30T02:08:26.461Z,61.38
2019-05-30T02:10:53.073Z,62.10
2019-05-30T02:13:19.675Z,61.28
2019-05-30T02:15:46.454Z,61.48
2019-05-30T02:18:13.079Z,61.51
2019-05-30T02:20:39.745Z,62.31
2019-05-30T02:23:08.042Z,62.11
2019-05-30T02:25:35.030Z,61.62
2019-05-30T02:28:02.070Z,61.49
2019-05-30T02:30:29.250Z,62.28
2019-05-30T02:32:56.315Z,61.62
2019-05-30T02:35:22.934Z,62.77
2019-05-30T02:37:49.625Z,61.58
2019-05-30T02:40:16.784Z,61.97
2019-05-30T02:42:43.524Z,61.94
2019-05-30T02:45:12.533Z,63.03
2019-05-30T02:47:39.666Z,62.96
2019-05-30T02:50:10.977Z,62.61
2019-05-30T02:52:37.872Z,61.91
2019-05-30T02:55:06.639Z,62.28
2019-05-30T02:57:33.488Z,62.46
2019-05-30T03:00:01.961Z,63.03
2019-05-30T03:02:29.975Z,61.72
2019-05-30T03:04:56.696Z,62.20
2019-05-30T03:07:23.421Z,61.99
2019-05-30T03:09:50.623Z,61.78
2019-05-30T03:12:17.400Z,61.52
2019-05-30T03:14:45.207Z,61.33
2019-05-30T03:17:14.356Z,61.86
2019-05-30T03:19:40.628Z,61.53
2019-05-30T03:22:08.874Z,60.68
2019-05-30T03:24:35.918Z,60.08
2019-05-30T03:27:04.798Z,60.79
2019-05-30T03:29:31.321Z,61.12
2019-05-30T03:32:28.211Z,60.15
2019-05-30T03:34:29.070Z,60.08
2019-05-30T03:36:55.741Z,60.57
2019-05-30T03:39:22.681Z,59.65
2019-05-30T03:41:49.333Z,60.16
2019-05-30T03:44:16.084Z,59.56
2019-05-30T03:46:47.329Z,60.25
2019-05-30T03:49:17.018Z,60.48
2019-05-30T03:51:46.008Z,59.79
2019-05-30T03:54:14.153Z,59.54
2019-05-30T03:56:44.911Z,59.64
2019-05-30T03:59:25.864Z,60.02
2019-05-30T04:02:01.447Z,59.75
2019-05-30T04:04:31.306Z,60.39
2019-05-30T04:07:01.742Z,60.10
2019-05-30T04:09:30.298Z,60.20
2019-05-30T04:12:12.720Z,59.47
2019-05-30T04:14:41.426Z,58.61
2019-05-30T04:17:10.162Z,58.58
2019-05-30T04:19:36.570Z,59.18
2019-05-30T04:22:03.332Z,59.51
2019-05-30T04:24:29.963Z,59.57
2019-05-30T04:26:56.597Z,59.06
2019-05-30T04:29:23.379Z,58.14
2019-05-30T04:31:50.048Z,58.41
2019-05-30T04:34:17.676Z,58.55
2019-05-30T04:36:45.329Z,58.50
2019-05-30T04:39:13.001Z,58.38
2019-05-30T04:41:40.949Z,58.54
2019-05-30T04:44:09.833Z,58.15
2019-05-30T04:46:36.637Z,57.70
2019-05-30T04:49:03.698Z,57.75
2019-05-30T04:51:30.324Z,58.72
2019-05-30T04:53:57.241Z,57.60
2019-05-30T04:56:23.954Z,58.13
2019-05-30T04:58:50.530Z,57.96
2019-05-30T05:01:18.212Z,57.22
2019-05-30T05:03:46.930Z,57.58
2019-05-30T05:06:14.323Z,58.17
2019-05-30T05:08:42.216Z,58.27
2019-05-30T05:11:12.363Z,58.97
2019-05-30T05:13:37.532Z,58.41
2019-05-30T05:16:21.437Z,58.90
2019-05-30T05:18:32.857Z,58.11
2019-05-30T05:20:59.572Z,56.24
2019-05-30T05:23:26.232Z,57.89
2019-05-30T05:26:00.747Z,57.24
2019-05-30T05:28:22.458Z,57.30
2019-05-30T05:30:49.194Z,56.63
2019-05-30T05:33:16.680Z,56.53
2019-05-30T05:35:43.507Z,56.35
2019-05-30T05:38:10.085Z,56.96
2019-05-30T05:40:36.961Z,57.54
2019-05-30T05:43:03.765Z,56.78
2019-05-30T05:45:30.373Z,55.88
2019-05-30T05:47:57.639Z,56.76
2019-05-30T05:50:24.674Z,56.73
2019-05-30T05:52:51.570Z,55.38
2019-05-30T05:55:18.763Z,56.11
2019-05-30T05:57:45.693Z,56.06
2019-05-30T06:00:12.754Z,55.70
2019-05-30T06:02:39.902Z,55.34
2019-05-30T06:05:09.496Z,55.83
2019-05-30T06:07:36.545Z,54.56
2019-05-30T06:10:03.966Z,54.32
2019-05-30T06:12:31.305Z,54.28
2019-05-30T06:14:58.303Z,54.87
2019-05-30T06:17:25.185Z,55.25
2019-05-30T06:19:51.778Z,55.91
2019-05-30T06:22:19.291Z,55.96
2019-05-30T06:24:45.978Z,55.66
2019-05-30T06:27:12.881Z,55.66
2019-05-30T06:29:39.796Z,56.12
2019-05-30T06:32:08.133Z,56.09
2019-05-30T06:34:39.341Z,55.66
2019-05-30T06:37:03.600Z,54.06
2019-05-30T06:39:30.313Z,54.72
2019-05-30T06:41:56.930Z,53.87
2019-05-30T06:44:23.973Z,52.87
2019-05-30T06:46:50.895Z,54.06
2019-05-30T06:49:17.515Z,54.62
2019-05-30T06:51:44.197Z,54.03
2019-05-30T06:54:10.866Z,54.48
2019-05-30T06:56:37.869Z,55.48
2019-05-30T06:59:04.586Z,56.18
2019-05-30T07:01:32.162Z,55.86
2019-05-30T07:03:59.155Z,55.77
2019-05-30T07:06:27.306Z,55.87
2019-05-30T07:08:54.746Z,56.02
2019-05-30T07:11:22.646Z,54.94
2019-05-30T07:13:49.384Z,55.42
2019-05-30T07:16:15.990Z,54.38
2019-05-30T07:18:42.565Z,54.98
2019-05-30T07:21:09.177Z,54.79
2019-05-30T07:23:39.056Z,54.00
2019-05-30T07:26:04.635Z,54.03
2019-05-30T07:28:32.008Z,53.70
2019-05-30T07:30:58.708Z,53.38
2019-05-30T07:33:26.001Z,52.98
2019-05-30T07:35:52.923Z,52.50
2019-05-30T07:38:19.549Z,52.81
2019-05-30T07:40:46.148Z,55.09
2019-05-30T07:43:12.814Z,55.84
2019-05-30T07:45:39.441Z,55.75
2019-05-30T07:48:06.153Z,54.92
2019-05-30T07:50:32.841Z,54.74
2019-05-30T07:53:00.483Z,54.08
2019-05-30T07:55:27.105Z,53.88
2019-05-30T07:58:01.937Z,54.05
2019-05-30T08:00:29.394Z,53.73
2019-05-30T08:02:56.044Z,54.31
2019-05-30T08:05:24.596Z,53.48
2019-05-30T08:07:51.445Z,53.46
2019-05-30T08:10:18.322Z,53.55
2019-05-30T08:12:44.950Z,53.01
2019-05-30T08:15:14.863Z,55.40
2019-05-30T08:17:44.297Z,56.93
2019-05-30T08:20:10.490Z,57.87
2019-05-30T08:22:38.333Z,59.34
2019-05-30T08:25:05.852Z,60.52
2019-05-30T08:27:32.459Z,58.66
2019-05-30T08:29:59.128Z,58.67
2019-05-30T08:32:25.843Z,59.86
2019-05-30T08:34:52.457Z,58.68
2019-05-30T08:37:19.115Z,59.54
2019-05-30T08:39:45.688Z,62.12
2019-05-30T08:42:12.262Z,64.14
2019-05-30T08:44:40.047Z,67.19
2019-05-30T08:47:06.963Z,68.43
2019-05-30T08:49:34.035Z,69.42
2019-05-30T08:52:04.909Z,70.31
2019-05-30T08:54:55.386Z,72.48
2019-05-30T08:57:22.586Z,73.40
2019-05-30T08:59:49.338Z,73.00
2019-05-30T09:02:15.967Z,74.79
2019-05-30T09:04:42.560Z,76.63
2019-05-30T09:07:09.179Z,75.14
2019-05-30T09:09:36.129Z,77.41
2019-05-30T09:12:03.181Z,76.70
2019-05-30T09:14:29.807Z,77.30
2019-05-30T09:16:57.069Z,78.17
2019-05-30T09:19:23.983Z,77.79
2019-05-30T09:21:50.704Z,78.69
2019-05-30T09:24:17.346Z,79.01
2019-05-30T09:26:47.167Z,78.84
2019-05-30T09:29:12.703Z,78.18
2019-05-30T09:31:40.827Z,78.24
2019-05-30T09:34:07.801Z,77.47
2019-05-30T09:36:34.706Z,77.57
2019-05-30T09:39:01.459Z,78.48
2019-05-30T09:41:29.867Z,77.33
2019-05-30T09:43:56.528Z,77.33
2019-05-30T09:46:23.360Z,75.44
2019-05-30T09:48:51.708Z,76.37
2019-05-30T09:51:18.578Z,75.45
2019-05-30T09:53:45.977Z,74.06
2019-05-30T09:56:14.952Z,72.94
2019-05-30T09:58:46.020Z,73.56
2019-05-30T10:01:17.990Z,74.09
2019-05-30T10:03:55.593Z,74.46
2019-05-30T10:06:29.449Z,74.27
2019-05-30T10:08:51.241Z,74.73
2019-05-30T10:11:18.358Z,74.36
2019-05-30T10:13:46.384Z,75.37
2019-05-30T10:16:13.732Z,74.81
2019-05-30T10:18:40.318Z,76.11
2019-05-30T10:21:07.011Z,75.48
2019-05-30T10:23:33.644Z,76.18
2019-05-30T10:26:00.198Z,76.69
2019-05-30T10:28:26.879Z,76.09
2019-05-30T10:30:57.088Z,76.76
2019-05-30T10:33:24.040Z,74.52
2019-05-30T10:35:53.322Z,76.32
2019-05-30T10:38:20.350Z,75.81
2019-05-30T10:40:48.832Z,74.61
2019-05-30T10:43:16.464Z,73.97
2019-05-30T10:45:43.049Z,73.12
2019-05-30T10:48:20.757Z,73.07
2019-05-30T10:50:48.514Z,73.06
2019-05-30T10:53:16.362Z,72.89
2019-05-30T10:55:43.309Z,73.13
2019-05-30T10:58:09.942Z,72.50
2019-05-30T11:00:45.655Z,72.50
2019-05-30T11:03:14.085Z,71.10
2019-05-30T11:05:44.128Z,69.89
2019-05-30T11:08:14.784Z,69.69
2019-05-30T11:10:43.985Z,69.04
2019-05-30T11:13:12.674Z,69.72
2019-05-30T11:15:39.517Z,69.77
2019-05-30T11:18:07.314Z,67.77
2019-05-30T11:20:34.117Z,67.62
2019-05-30T11:23:00.686Z,66.75
2019-05-30T11:25:27.407Z,65.48
2019-05-30T11:27:54.850Z,65.48
2019-05-30T11:30:21.842Z,64.58
2019-05-30T11:32:49.041Z,64.05
2019-05-30T11:35:15.887Z,64.84
2019-05-30T11:37:42.470Z,62.99
2019-05-30T11:40:09.166Z,64.29
2019-05-30T11:42:35.764Z,64.13
2019-05-30T11:45:02.970Z,64.00
2019-05-30T11:47:29.744Z,62.92
2019-05-30T11:49:56.360Z,62.01
2019-05-30T11:52:25.821Z,62.62
2019-05-30T11:54:52.418Z,62.44
2019-05-30T11:57:19.033Z,62.72
2019-05-30T11:59:45.924Z,62.98
2019-05-30T12:02:12.526Z,63.58
2019-05-30T12:04:39.316Z,64.45
2019-05-30T12:07:05.995Z,64.81
2019-05-30T12:09:32.659Z,64.53
2019-05-30T12:11:59.546Z,63.98
2019-05-30T12:14:26.133Z,64.86
2019-05-30T12:16:53.206Z,66.88
2019-05-30T12:19:20.034Z,68.85
2019-05-30T12:21:46.631Z,71.03
2019-05-30T12:24:13.512Z,71.21
2019-05-30T12:26:40.309Z,72.26
2019-05-30T12:29:08.830Z,72.89
2019-05-30T12:31:35.491Z,73.98
2019-05-30T12:34:02.727Z,74.11
2019-05-30T12:36:29.543Z,75.21
2019-05-30T12:38:56.383Z,76.15
2019-05-30T12:41:23.064Z,75.50
2019-05-30T12:43:49.669Z,75.43
2019-05-30T12:46:16.329Z,77.53
2019-05-30T12:48:42.970Z,75.49
2019-05-30T12:51:10.619Z,76.38
2019-05-30T12:53:37.214Z,75.55
2019-05-30T12:56:04.094Z,75.59
2019-05-30T12:58:30.862Z,75.98
2019-05-30T13:00:58.674Z,75.60
2019-05-30T13:03:25.474Z,75.60
2019-05-30T13:05:52.081Z,75.31
2019-05-30T13:08:21.978Z,75.72
2019-05-30T13:10:47.311Z,76.29
2019-05-30T13:13:14.241Z,74.42
2019-05-30T13:15:40.898Z,75.96
2019-05-30T13:18:08.631Z,76.13
2019-05-30T13:20:35.524Z,76.17
2019-05-30T13:23:03.116Z,75.38
2019-05-30T13:25:29.847Z,75.73
2019-05-30T13:27:57.665Z,75.58
2019-05-30T13:30:25.370Z,73.93
2019-05-30T13:32:52.065Z,74.44
2019-05-30T13:35:18.894Z,75.67
2019-05-30T13:37:45.526Z,75.64
2019-05-30T13:40:24.325Z,74.33
2019-05-30T13:42:41.164Z,75.61
2019-05-30T13:45:08.460Z,75.07
2019-05-30T13:47:35.717Z,75.89
2019-05-30T13:50:03.116Z,74.83
2019-05-30T13:52:30.301Z,74.55
2019-05-30T13:54:57.147Z,74.48
2019-05-30T13:57:24.373Z,72.92
2019-05-30T13:59:51.157Z,74.16
2019-05-30T14:02:17.811Z,75.13
2019-05-30T14:04:44.583Z,74.47
2019-05-30T14:07:11.183Z,73.48
2019-05-30T14:09:39.441Z,73.33
2019-05-30T14:12:06.758Z,72.01
2019-05-30T14:14:33.588Z,73.02
2019-05-30T14:17:00.876Z,73.25
2019-05-30T14:19:27.781Z,71.03
2019-05-30T14:21:54.541Z,71.82
2019-05-30T14:24:22.465Z,71.29
2019-05-30T14:26:50.321Z,70.42
2019-05-30T14:29:16.985Z,70.91
2019-05-30T14:31:43.851Z,70.29
2019-05-30T14:34:10.495Z,70.65
2019-05-30T14:36:37.153Z,70.58
2019-05-30T14:39:06.868Z,70.84
2019-05-30T14:41:36.557Z,69.59
2019-05-30T14:44:03.362Z,70.19
2019-05-30T14:46:30.058Z,69.86
2019-05-30T14:48:56.998Z,68.73
2019-05-30T14:51:23.634Z,69.79
2019-05-30T14:53:50.434Z,68.09
2019-05-30T14:56:17.564Z,67.83
2019-05-30T14:58:44.562Z,68.53
2019-05-30T15:01:11.275Z,67.82
2019-05-30T15:03:37.815Z,68.30
2019-05-30T15:06:08.507Z,68.42
2019-05-30T15:08:34.235Z,68.70
2019-05-30T15:11:00.848Z,67.95
2019-05-30T15:13:27.485Z,67.25
2019-05-30T15:15:57.161Z,68.14
2019-05-30T15:18:23.960Z,68.23
2019-05-30T15:20:50.547Z,68.89
2019-05-30T15:23:17.225Z,67.35
2019-05-30T15:25:43.998Z,66.46
2019-05-30T15:28:12.095Z,66.68
2019-05-30T15:30:38.988Z,66.66
2019-05-30T15:33:06.303Z,68.13
2019-05-30T15:35:33.311Z,66.83
2019-05-30T15:37:59.911Z,66.05
2019-05-30T15:40:26.850Z,65.08
2019-05-30T15:42:53.464Z,64.69
2019-05-30T15:45:21.028Z,67.20
2019-05-30T15:47:47.659Z,67.27
2019-05-30T15:50:15.353Z,65.28
2019-05-30T15:52:43.476Z,64.24
2019-05-30T15:55:11.347Z,65.29
2019-05-30T15:57:38.331Z,64.77
2019-05-30T16:00:06.759Z,65.62
2019-05-30T16:02:33.428Z,66.36
2019-05-30T16:05:00.009Z,66.83
2019-05-30T16:07:26.917Z,66.63
2019-05-30T16:09:53.895Z,67.19
2019-05-30T16:12:21.376Z,66.01
2019-05-30T16:14:49.300Z,64.90
2019-05-30T16:17:16.240Z,64.93
2019-05-30T16:19:44.091Z,65.12
2019-05-30T16:22:12.244Z,65.66
2019-05-30T16:24:39.047Z,65.90
2019-05-30T16:27:05.640Z,66.59
2019-05-30T16:29:32.554Z,65.76
2019-05-30T16:31:59.118Z,65.78
2019-05-30T16:34:26.423Z,65.20
2019-05-30T16:36:52.990Z,64.50
2019-05-30T16:39:20.400Z,64.79
2019-05-30T16:41:47.205Z,64.21
2019-05-30T16:44:14.185Z,64.45
2019-05-30T16:46:40.929Z,64.13
2019-05-30T16:49:07.833Z,65.34
2019-05-30T16:51:34.428Z,65.48
2019-05-30T16:54:01.111Z,65.90
2019-05-30T16:56:27.990Z,66.56
2019-05-30T16:58:54.668Z,66.96
2019-05-30T17:01:22.023Z,66.22
2019-05-30T17:03:50.003Z,66.49
2019-05-30T17:06:17.939Z,66.26
2019-05-30T17:08:44.836Z,67.48
2019-05-30T17:11:11.431Z,66.58
2019-05-30T17:13:38.103Z,67.55
2019-05-30T17:16:04.858Z,66.47
2019-05-30T17:18:32.432Z,66.74
2019-05-30T17:20:59.071Z,67.79
2019-05-30T17:23:26.748Z,68.11
2019-05-30T17:25:53.747Z,69.45
2019-05-30T17:28:20.437Z,69.48
2019-05-30T17:30:47.119Z,70.24
2019-05-30T17:33:13.707Z,72.18
2019-05-30T17:35:40.679Z,71.71
2019-05-30T17:38:07.623Z,71.48
2019-05-30T17:40:43.673Z,70.89
2019-05-30T17:43:02.883Z,70.92
2019-05-30T17:45:29.602Z,70.43
2019-05-30T17:48:07.514Z,70.84
2019-05-30T17:50:25.816Z,70.70
2019-05-30T17:52:52.483Z,71.66
2019-05-30T17:55:19.755Z,71.99
2019-05-30T17:57:46.476Z,73.38
2019-05-30T18:00:15.152Z,73.75
2019-05-30T18:02:42.909Z,73.15
2019-05-30T18:05:11.601Z,72.82
2019-05-30T18:07:38.277Z,72.65
2019-05-30T18:10:05.426Z,73.54
2019-05-30T18:12:32.110Z,73.96
2019-05-30T18:15:00.294Z,74.10
2019-05-30T18:17:27.248Z,75.27
2019-05-30T18:19:53.999Z,74.98
2019-05-30T18:22:21.429Z,77.21
2019-05-30T18:24:48.395Z,78.94
2019-05-30T18:27:15.027Z,79.12
2019-05-30T18:29:41.944Z,79.87
2019-05-30T18:32:08.598Z,80.68
2019-05-30T18:34:35.228Z,81.56
2019-05-30T18:37:01.920Z,80.80
2019-05-30T18:39:28.691Z,81.76
2019-05-30T18:41:57.871Z,82.17
2019-05-30T18:44:25.749Z,81.84
2019-05-30T18:46:53.468Z,80.75
2019-05-30T18:49:20.057Z,80.43
2019-05-30T18:51:46.749Z,79.99
2019-05-30T18:54:13.567Z,79.23
2019-05-30T18:56:40.265Z,80.31
2019-05-30T18:59:06.931Z,81.58
2019-05-30T19:01:33.870Z,81.06
2019-05-30T19:04:00.809Z,81.26
2019-05-30T19:06:29.980Z,82.88
2019-05-30T19:08:56.658Z,82.03
2019-05-30T19:11:29.665Z,83.15
2019-05-30T19:13:53.125Z,80.77
2019-05-30T19:16:20.029Z,82.80
2019-05-30T19:18:46.667Z,81.76
2019-05-30T19:21:13.331Z,81.16
2019-05-30T19:23:39.964Z,81.23
2019-05-30T19:26:06.526Z,81.79
2019-05-30T19:28:34.562Z,81.07
2019-05-30T19:31:01.278Z,81.43
2019-05-30T19:33:28.835Z,79.59
2019-05-30T19:35:55.912Z,78.79
2019-05-30T19:38:22.547Z,80.47
2019-05-30T19:40:50.412Z,79.17
2019-05-30T19:43:17.058Z,80.41
2019-05-30T19:45:43.816Z,80.36
2019-05-30T19:48:10.511Z,80.72
2019-05-30T19:50:37.399Z,80.44
2019-05-30T19:53:04.119Z,79.65
2019-05-30T19:55:31.097Z,79.10
2019-05-30T19:57:57.798Z,79.06
2019-05-30T20:00:24.494Z,79.16
2019-05-30T20:02:51.150Z,78.75
2019-05-30T20:05:18.095Z,79.27
2019-05-30T20:07:45.004Z,79.12
2019-05-30T20:10:12.805Z,78.65
2019-05-30T20:12:39.492Z,78.44
2019-05-30T20:15:07.697Z,78.22
2019-05-30T20:17:35.448Z,78.17
2019-05-30T20:20:02.854Z,79.88
2019-05-30T20:22:30.072Z,78.56
2019-05-30T20:24:56.737Z,78.15
2019-05-30T20:27:23.659Z,79.25
2019-05-30T20:29:50.448Z,81.10
2019-05-30T20:32:17.067Z,79.73
2019-05-30T20:34:43.703Z,78.37
2019-05-30T20:37:10.346Z,78.38
2019-05-30T20:39:36.990Z,78.63
2019-05-30T20:42:18.204Z,79.73
2019-05-30T20:44:33.010Z,79.41
2019-05-30T20:46:59.673Z,79.72
2019-05-30T20:49:26.389Z,80.47
2019-05-30T20:51:53.322Z,80.06
2019-05-30T20:54:21.105Z,80.11
2019-05-30T20:56:50.156Z,79.52
2019-05-30T20:59:16.222Z,79.21
2019-05-30T21:01:43.805Z,81.08
2019-05-30T21:04:10.540Z,81.96
2019-05-30T21:06:37.355Z,80.33
2019-05-30T21:09:06.179Z,80.98
2019-05-30T21:11:36.104Z,82.03
2019-05-30T21:14:03.621Z,81.31
2019-05-30T21:16:33.631Z,81.38
2019-05-30T21:19:05.520Z,81.37
2019-05-30T21:21:32.248Z,83.09
2019-05-30T21:23:58.866Z,81.05
2019-05-30T21:26:25.473Z,81.47
2019-05-30T21:28:52.349Z,80.61
2019-05-30T21:31:19.598Z,80.20
2019-05-30T21:33:48.043Z,82.75
2019-05-30T21:36:15.342Z,80.65
2019-05-30T21:38:42.015Z,81.41
2019-05-30T21:41:08.589Z,80.93
2019-05-30T21:43:35.218Z,82.16
2019-05-30T21:46:01.783Z,81.58
2019-05-30T21:48:28.497Z,82.25
2019-05-30T21:50:55.268Z,83.21
2019-05-30T21:53:21.994Z,81.78
2019-05-30T21:55:50.133Z,83.34
2019-05-30T21:58:16.908Z,81.52
2019-05-30T22:01:22.205Z,82.04
2019-05-30T22:03:51.006Z,83.35
2019-05-30T22:06:18.869Z,82.65
2019-05-30T22:08:45.641Z,82.56
2019-05-30T22:11:12.216Z,82.42
2019-05-30T22:13:38.914Z,84.08
2019-05-30T22:16:05.861Z,82.87
2019-05-30T22:18:32.473Z,81.70
2019-05-30T22:20:59.045Z,81.94
2019-05-30T22:23:25.735Z,82.63
2019-05-30T22:25:53.062Z,82.93
2019-05-30T22:28:19.733Z,82.99
2019-05-30T22:30:48.509Z,82.67
2019-05-30T22:33:15.541Z,83.37
2019-05-30T22:35:44.512Z,83.88
2019-05-30T22:38:11.440Z,82.57
2019-05-30T22:40:38.195Z,83.16
2019-05-30T22:43:04.797Z,83.27
2019-05-30T22:45:31.541Z,82.73
2019-05-30T22:47:58.154Z,83.93
2019-05-30T22:50:24.905Z,83.37
2019-05-30T22:52:51.511Z,82.87
2019-05-30T22:55:18.184Z,82.98
2019-05-30T22:57:44.845Z,83.15
2019-05-30T23:00:11.549Z,83.56
2019-05-30T23:02:38.326Z,81.95
2019-05-30T23:05:05.050Z,82.95
2019-05-30T23:07:32.705Z,81.58
2019-05-30T23:09:59.289Z,82.45
2019-05-30T23:12:25.870Z,83.36
2019-05-30T23:14:52.445Z,82.88
2019-05-30T23:17:19.343Z,82.87
2019-05-30T23:19:46.522Z,83.81
2019-05-30T23:22:13.518Z,82.71
2019-05-30T23:24:40.125Z,82.75
2019-05-30T23:27:08.320Z,83.35
2019-05-30T23:29:35.092Z,83.77
2019-05-30T23:32:02.075Z,83.23
2019-05-30T23:34:28.657Z,81.71
2019-05-30T23:36:58.740Z,82.90
2019-05-30T23:39:25.857Z,83.11
2019-05-30T23:41:53.008Z,82.85
2019-05-30T23:44:20.139Z,82.90
2019-05-30T23:46:46.989Z,83.03
2019-05-30T23:49:13.614Z,83.03
2019-05-30T23:51:41.258Z,83.42
2019-05-30T23:54:08.980Z,82.98
2019-05-30T23:56:35.581Z,82.69
2019-05-30T23:59:02.341Z,82.49
